Time;durP1;ratioP1;P1;durP2;ratioP2;P2;SDS_P1;SDS_P2;PMS_P1;PMS_P2;Temp;Humidity;BMP_temperature;BMP_pressure;BME280_temperature;BME280_humidity;BME280_pressure;Samples;Min_cycle;Max_cycle;Signal;HPM_P1;HPM_P2
2023/08/01 00:01:48;;;;;;;10.07;3.50;;;25.10;91.30;;;;;;5062213;28;20239;-75
2023/08/01 00:04:16;;;;;;;5.03;3.27;;;25.10;91.40;;;;;;5079119;28;20198;-75
2023/08/01 00:06:43;;;;;;;4.97;3.23;;;25.10;91.50;;;;;;5063213;28;20265;-75
2023/08/01 00:09:10;;;;;;;3.83;3.20;;;25.20;91.50;;;;;;5081666;28;20207;-75
2023/08/01 00:11:37;;;;;;;4.47;3.60;;;25.20;91.50;;;;;;5099043;28;20216;-75
2023/08/01 00:14:04;;;;;;;3.73;3.23;;;25.20;91.50;;;;;;5098985;28;20278;-74
2023/08/01 00:16:32;;;;;;;4.40;3.37;;;25.20;91.50;;;;;;5099296;28;20195;-75
2023/08/01 00:18:59;;;;;;;3.43;3.13;;;25.20;91.50;;;;;;5076543;28;20285;-75
2023/08/01 00:21:26;;;;;;;5.47;4.23;;;25.20;91.50;;;;;;5080919;28;20210;-75
2023/08/01 00:23:53;;;;;;;7.97;4.20;;;25.20;91.50;;;;;;5099324;28;20210;-75
2023/08/01 00:26:20;;;;;;;4.67;4.23;;;25.10;91.50;;;;;;5081123;28;20201;-75
2023/08/01 00:28:47;;;;;;;6.60;3.27;;;25.10;91.60;;;;;;5081456;28;20201;-75
2023/08/01 00:31:15;;;;;;;3.97;3.57;;;25.10;91.70;;;;;;5080606;28;20319;-75
2023/08/01 00:33:42;;;;;;;4.57;4.07;;;25.00;91.70;;;;;;5080497;28;20630;-75
2023/08/01 00:36:11;;;;;;;3.53;3.23;;;25.00;91.80;;;;;;5064151;28;20202;-75
2023/08/01 00:38:38;;;;;;;4.47;3.50;;;25.00;91.90;;;;;;5051517;28;20205;-75
2023/08/01 00:41:05;;;;;;;4.03;3.73;;;24.90;91.90;;;;;;5075919;28;20862;-75
2023/08/01 00:43:32;;;;;;;8.50;3.40;;;24.90;92.00;;;;;;5076995;28;20209;-75
2023/08/01 00:46:03;;;;;;;4.20;3.50;;;24.90;92.10;;;;;;5074102;28;20298;-75
2023/08/01 00:48:31;;;;;;;5.87;3.10;;;24.90;92.10;;;;;;5080945;28;20193;-75
2023/08/01 00:51:00;;;;;;;5.60;3.23;;;24.90;92.20;;;;;;5077527;28;20223;-75
2023/08/01 00:53:28;;;;;;;4.80;3.27;;;24.80;92.20;;;;;;5060684;28;20200;-75
2023/08/01 00:55:56;;;;;;;4.23;3.50;;;24.80;92.40;;;;;;5056939;28;20657;-75
2023/08/01 00:58:23;;;;;;;4.90;3.57;;;24.80;92.40;;;;;;5059921;28;20221;-75
2023/08/01 01:00:50;;;;;;;4.30;3.90;;;24.80;92.40;;;;;;5060141;28;20302;-75
2023/08/01 01:03:18;;;;;;;4.67;3.93;;;24.80;92.40;;;;;;5059960;28;20210;-75
2023/08/01 01:06:18;;;;;;;4.97;3.43;;;24.80;92.40;;;;;;5059209;28;20239;-75
2023/08/01 01:08:46;;;;;;;4.53;4.13;;;24.80;92.40;;;;;;5049883;28;20541;-75
2023/08/01 01:11:13;;;;;;;5.40;3.90;;;24.80;92.40;;;;;;5080057;28;20221;-75
2023/08/01 01:13:41;;;;;;;4.07;3.30;;;24.80;92.40;;;;;;5078889;28;20203;-75
2023/08/01 01:16:08;;;;;;;3.40;3.10;;;24.80;92.40;;;;;;5043689;28;20201;-75
2023/08/01 01:18:35;;;;;;;6.87;3.47;;;24.80;92.50;;;;;;5060685;28;20209;-75
2023/08/01 01:21:02;;;;;;;4.60;3.03;;;24.80;92.50;;;;;;5075831;28;20266;-75
2023/08/01 01:23:30;;;;;;;4.33;3.20;;;24.70;92.50;;;;;;5099463;28;20238;-75
2023/08/01 01:25:58;;;;;;;3.90;3.17;;;24.70;92.60;;;;;;5061762;28;20609;-75
2023/08/01 01:28:26;;;;;;;3.53;3.23;;;24.70;92.70;;;;;;5062366;28;20213;-75
2023/08/01 01:30:54;;;;;;;6.90;4.00;;;24.70;92.80;;;;;;5096991;28;20284;-75
2023/08/01 01:33:22;;;;;;;4.67;3.53;;;24.70;92.80;;;;;;5079374;28;20237;-75
2023/08/01 01:35:49;;;;;;;6.17;3.90;;;24.60;92.90;;;;;;5079560;28;20219;-75
2023/08/01 01:38:17;;;;;;;4.00;3.53;;;24.60;93.00;;;;;;5097846;28;20191;-75
2023/08/01 01:40:44;;;;;;;4.80;3.67;;;24.60;93.00;;;;;;5097501;28;20204;-75
2023/08/01 01:43:11;;;;;;;3.80;3.40;;;24.60;93.00;;;;;;5074358;28;20645;-75
2023/08/01 01:45:38;;;;;;;6.90;3.40;;;24.60;93.00;;;;;;5059777;28;20193;-75
2023/08/01 01:48:05;;;;;;;4.57;3.30;;;24.60;92.90;;;;;;5082075;28;20258;-75
2023/08/01 01:50:34;;;;;;;3.57;2.90;;;24.50;92.90;;;;;;5063333;28;20226;-75
2023/08/01 01:53:01;;;;;;;5.93;3.57;;;24.60;92.90;;;;;;5063369;28;20265;-75
2023/08/01 01:55:28;;;;;;;6.43;3.50;;;24.50;93.00;;;;;;5097361;28;20776;-75
2023/08/01 01:57:55;;;;;;;4.83;3.23;;;24.50;93.10;;;;;;5063269;28;20258;-75
2023/08/01 02:00:22;;;;;;;5.60;3.40;;;24.50;93.10;;;;;;5062477;28;20376;-75
2023/08/01 02:02:49;;;;;;;5.10;3.37;;;24.50;93.10;;;;;;5061518;28;20646;-75
2023/08/01 02:05:16;;;;;;;3.13;2.83;;;24.50;93.10;;;;;;5079554;28;20204;-75
2023/08/01 02:07:43;;;;;;;4.43;3.80;;;24.50;93.20;;;;;;5062997;28;20224;-75
2023/08/01 02:10:10;;;;;;;5.40;3.30;;;24.50;93.30;;;;;;5071066;28;20216;-75
2023/08/01 02:12:37;;;;;;;4.83;3.20;;;24.50;93.30;;;;;;5097610;28;20193;-76
2023/08/01 02:15:05;;;;;;;3.63;3.23;;;24.50;93.20;;;;;;5080734;28;20201;-75
2023/08/01 02:17:32;;;;;;;5.47;3.50;;;24.50;93.10;;;;;;5079294;28;20206;-75
2023/08/01 02:19:59;;;;;;;4.00;3.20;;;24.50;93.00;;;;;;5078010;28;20300;-75
2023/08/01 02:22:27;;;;;;;3.20;2.90;;;24.40;93.00;;;;;;5075618;28;20209;-75
2023/08/01 02:24:54;;;;;;;6.73;3.57;;;24.40;93.00;;;;;;5058595;28;20232;-75
2023/08/01 02:27:21;;;;;;;4.43;4.03;;;24.30;92.80;;;;;;5062324;28;20193;-75
2023/08/01 02:29:50;;;;;;;3.73;3.33;;;24.30;92.80;;;;;;5062186;28;20640;-75
2023/08/01 02:32:17;;;;;;;3.80;3.50;;;24.30;93.00;;;;;;5078890;28;20202;-75
2023/08/01 02:34:45;;;;;;;6.33;3.53;;;24.20;93.20;;;;;;5058703;28;20206;-75
2023/08/01 02:37:12;;;;;;;5.23;3.40;;;24.20;93.30;;;;;;5069800;28;20201;-75
2023/08/01 02:39:39;;;;;;;3.90;3.60;;;24.20;93.50;;;;;;5079135;28;20207;-75
2023/08/01 02:42:06;;;;;;;6.10;3.77;;;24.10;93.60;;;;;;5062237;28;20277;-75
2023/08/01 02:44:33;;;;;;;4.27;3.80;;;24.20;93.80;;;;;;5062485;28;20201;-75
2023/08/01 02:47:00;;;;;;;4.73;3.70;;;24.10;93.80;;;;;;5079166;28;20625;-75
2023/08/01 02:49:27;;;;;;;5.03;3.53;;;24.10;93.80;;;;;;5079250;28;20198;-75
2023/08/01 02:51:54;;;;;;;5.27;3.90;;;24.10;93.70;;;;;;5078467;28;20212;-75
2023/08/01 02:54:21;;;;;;;4.27;3.83;;;24.10;93.70;;;;;;5078164;28;20205;-74
2023/08/01 02:56:48;;;;;;;4.30;3.90;;;24.10;93.80;;;;;;5073885;28;20638;-75
2023/08/01 02:59:16;;;;;;;5.10;3.97;;;24.10;93.90;;;;;;5047244;28;20193;-76
2023/08/01 03:01:42;;;;;;;5.67;3.80;;;24.10;93.90;;;;;;5082498;28;20201;-75
2023/08/01 03:04:13;;;;;;;6.70;4.17;;;24.10;93.80;;;;;;5061541;28;20205;-75
2023/08/01 03:06:40;;;;;;;6.33;3.93;;;24.10;93.80;;;;;;5075760;28;20257;-75
2023/08/01 03:09:07;;;;;;;6.00;4.47;;;24.00;93.80;;;;;;5068608;28;20652;-75
2023/08/01 03:11:38;;;;;;;4.83;3.57;;;24.00;93.80;;;;;;5057931;28;20234;-75
2023/08/01 03:14:05;;;;;;;5.00;3.77;;;24.00;93.90;;;;;;5048469;28;20262;-75
2023/08/01 03:16:32;;;;;;;5.43;4.20;;;24.00;93.90;;;;;;5061096;28;20701;-75
2023/08/01 03:19:04;;;;;;;5.50;3.43;;;24.00;94.00;;;;;;5096233;28;20208;-75
2023/08/01 03:21:32;;;;;;;4.80;3.97;;;24.00;94.10;;;;;;5079372;28;20198;-75
2023/08/01 03:24:01;;;;;;;4.10;3.23;;;24.00;94.10;;;;;;5078896;28;20197;-75
2023/08/01 03:26:28;;;;;;;7.20;4.17;;;24.00;94.20;;;;;;5078629;28;20211;-76
2023/08/01 03:28:56;;;;;;;5.60;4.50;;;24.00;94.30;;;;;;5079273;28;20199;-75
2023/08/01 03:31:23;;;;;;;4.87;3.77;;;24.00;94.40;;;;;;5078368;28;20559;-75
2023/08/01 03:33:53;;;;;;;5.57;4.03;;;24.00;94.40;;;;;;5086322;28;20186;-75
2023/08/01 03:36:25;;;;;;;4.57;3.50;;;24.00;94.40;;;;;;5085181;28;20193;-75
2023/08/01 03:38:56;;;;;;;6.40;3.70;;;24.00;94.40;;;;;;5085989;28;20193;-76
2023/08/01 03:41:23;;;;;;;8.17;4.83;;;24.00;94.30;;;;;;5100952;28;20278;-76
2023/08/01 03:43:51;;;;;;;4.53;4.10;;;24.00;94.30;;;;;;5095344;28;20221;-76
2023/08/01 03:46:19;;;;;;;5.50;3.83;;;24.00;94.20;;;;;;5085814;28;20209;-76
2023/08/01 03:48:48;;;;;;;8.07;4.27;;;24.00;94.20;;;;;;5084211;28;20216;-75
2023/08/01 03:51:19;;;;;;;5.07;4.13;;;24.00;94.10;;;;;;5083800;28;20649;-75
2023/08/01 03:53:46;;;;;;;4.50;4.10;;;23.90;94.10;;;;;;5083910;28;20293;-75
2023/08/01 03:56:36;;;;;;;7.33;5.03;;;23.90;94.20;;;;;;5082413;28;20555;-76
2023/08/01 03:59:07;;;;;;;5.40;4.90;;;23.90;94.40;;;;;;5072245;28;20317;-75
2023/08/01 04:01:36;;;;;;;7.13;4.57;;;23.90;94.50;;;;;;5059052;28;20308;-75
2023/08/01 04:04:39;;;;;;;6.37;4.63;;;23.80;94.50;;;;;;5081100;28;20273;-74
2023/08/01 04:08:01;;;;;;;7.10;4.50;;;23.80;94.50;;;;;;5037852;28;20726;-74
2023/08/01 04:12:09;;;;;;;;;;;;;;;;;;;;;
2023/08/01 04:24:30;;;;;;;5.43;4.90;;;23.70;94.70;;;;;;4918966;29;20222;-74
2023/08/01 04:28:10;;;;;;;9.00;5.97;;;23.70;94.70;;;;;;4942967;29;20229;-74
2023/08/01 04:35:58;;;;;;;13.87;5.03;;;23.70;94.80;;;;;;4943663;29;20202;-74
2023/08/01 04:43:16;;;;;;;7.60;6.00;;;23.70;94.60;;;;;;4951036;28;20244;-73
2023/08/01 04:45:45;;;;;;;6.97;6.20;;;23.70;94.50;;;;;;4965114;28;20272;-74
2023/08/01 04:48:15;;;;;;;6.43;5.77;;;23.60;94.50;;;;;;4979398;28;20657;-75
2023/08/01 04:50:46;;;;;;;6.67;6.10;;;23.60;94.60;;;;;;4993137;28;20222;-74
2023/08/01 04:53:16;;;;;;;9.30;5.77;;;23.60;94.80;;;;;;5063746;28;20554;-75
2023/08/01 04:55:43;;;;;;;9.30;5.77;;;23.60;94.90;;;;;;5077264;28;20314;-75
2023/08/01 04:58:10;;;;;;;6.93;6.07;;;23.70;95.00;;;;;;5061395;28;20205;-74
2023/08/01 05:00:40;;;;;;;6.47;5.43;;;23.70;95.10;;;;;;5060849;28;20509;-74
2023/08/01 05:03:07;;;;;;;9.50;5.60;;;23.70;95.20;;;;;;5061909;28;20240;-75
2023/08/01 05:05:37;;;;;;;8.13;5.80;;;23.70;95.20;;;;;;5075809;28;20205;-75
2023/08/01 05:08:07;;;;;;;12.97;5.57;;;23.80;95.20;;;;;;5065471;28;20606;-75
2023/08/01 05:10:35;;;;;;;6.57;4.80;;;23.80;95.10;;;;;;5085679;28;20223;-74
2023/08/01 05:13:02;;;;;;;8.23;5.37;;;23.90;95.00;;;;;;5078851;28;20259;-74
2023/08/01 05:15:36;;;;;;;8.30;5.10;;;24.00;94.70;;;;;;5096854;28;20634;-75
2023/08/01 05:18:04;;;;;;;6.30;4.87;;;24.00;94.50;;;;;;5081764;28;20184;-75
2023/08/01 05:20:33;;;;;;;7.07;5.10;;;24.00;94.30;;;;;;5081256;28;20201;-75
2023/08/01 05:23:00;;;;;;;5.57;5.03;;;24.10;94.10;;;;;;5080796;28;20205;-75
2023/08/01 05:25:28;;;;;;;7.23;5.17;;;24.10;94.00;;;;;;5051332;28;20288;-75
2023/08/01 05:27:55;;;;;;;9.83;4.63;;;24.20;94.00;;;;;;5081238;28;20543;-75
2023/08/01 05:30:23;;;;;;;8.07;5.37;;;24.20;93.80;;;;;;5064193;28;20220;-75
2023/08/01 05:32:54;;;;;;;5.47;4.90;;;24.30;93.60;;;;;;5064670;28;20221;-74
2023/08/01 05:35:21;;;;;;;7.67;4.90;;;24.40;93.40;;;;;;5081134;28;20674;-75
2023/08/01 05:37:52;;;;;;;6.47;4.53;;;24.50;93.10;;;;;;5080577;28;20197;-74
2023/08/01 05:40:25;;;;;;;9.33;4.80;;;24.50;92.90;;;;;;5080784;28;20196;-74
2023/08/01 05:42:55;;;;;;;8.63;4.60;;;24.60;92.60;;;;;;5064141;28;20207;-75
2023/08/01 05:45:24;;;;;;;5.77;5.13;;;24.70;92.40;;;;;;5098086;28;20189;-75
2023/08/01 05:47:51;;;;;;;4.97;4.47;;;24.80;92.10;;;;;;5063579;28;20386;-74
2023/08/01 05:50:19;;;;;;;6.23;4.67;;;24.80;91.90;;;;;;5069043;28;20212;-74
2023/08/01 05:52:47;;;;;;;8.30;5.33;;;24.80;91.80;;;;;;5066221;28;20225;-74
2023/08/01 05:55:15;;;;;;;7.77;5.33;;;24.90;91.50;;;;;;5096669;28;20239;-75
2023/08/01 05:57:42;;;;;;;7.07;4.37;;;25.00;91.10;;;;;;5078344;28;20543;-75
2023/08/01 06:00:10;;;;;;;7.07;5.47;;;25.00;90.70;;;;;;5068117;28;20256;-75
2023/08/01 06:02:40;;;;;;;6.40;4.90;;;25.10;90.50;;;;;;5079824;28;20225;-75
2023/08/01 06:05:08;;;;;;;5.77;5.03;;;25.10;90.30;;;;;;5072435;28;20205;-75
2023/08/01 06:07:35;;;;;;;7.43;5.93;;;25.20;90.20;;;;;;5060552;28;20273;-75
2023/08/01 06:10:04;;;;;;;8.10;5.50;;;25.20;90.00;;;;;;5071774;28;20297;-76
2023/08/01 06:12:31;;;;;;;17.13;6.20;;;25.20;89.70;;;;;;5072215;28;20309;-75
2023/08/01 06:14:59;;;;;;;12.03;6.20;;;25.30;89.30;;;;;;5079798;28;20200;-75
2023/08/01 06:17:26;;;;;;;14.37;6.27;;;25.30;88.80;;;;;;5077540;28;20202;-75
2023/08/01 06:19:57;;;;;;;9.07;6.37;;;25.40;88.50;;;;;;5060647;28;20270;-75
2023/08/01 06:22:24;;;;;;;6.53;5.83;;;25.40;88.40;;;;;;5097274;28;20290;-75
2023/08/01 06:24:54;;;;;;;7.07;6.00;;;25.50;88.80;;;;;;5069977;28;20637;-75
2023/08/01 06:27:22;;;;;;;9.07;6.27;;;25.60;88.70;;;;;;5096703;28;20198;-75
2023/08/01 06:29:51;;;;;;;6.33;5.73;;;25.80;88.60;;;;;;5060021;28;20619;-75
2023/08/01 06:32:18;;;;;;;7.07;6.37;;;25.90;88.40;;;;;;5059015;28;20205;-74
2023/08/01 06:34:46;;;;;;;9.77;6.20;;;25.90;88.30;;;;;;5061833;28;20272;-75
2023/08/01 06:37:15;;;;;;;7.33;6.13;;;26.00;88.20;;;;;;5068152;28;20529;-75
2023/08/01 06:39:43;;;;;;;11.53;6.27;;;26.10;88.10;;;;;;5077688;28;20200;-75
2023/08/01 06:42:10;;;;;;;9.53;7.40;;;26.20;88.10;;;;;;5096815;28;20234;-75
2023/08/01 06:44:37;;;;;;;11.83;7.43;;;26.20;88.10;;;;;;5075917;28;20203;-74
2023/08/01 06:47:04;;;;;;;10.70;7.73;;;26.30;88.20;;;;;;5075812;28;20304;-75
2023/08/01 06:49:34;;;;;;;8.37;6.73;;;26.50;88.20;;;;;;5081302;28;20205;-75
2023/08/01 06:52:05;;;;;;;11.37;6.90;;;26.50;87.90;;;;;;5077131;28;20296;-75
2023/08/01 06:54:32;;;;;;;7.87;6.70;;;26.70;87.70;;;;;;5067219;28;20245;-75
2023/08/01 06:57:02;;;;;;;11.17;7.27;;;26.80;87.30;;;;;;5089370;28;20215;-75
2023/08/01 06:59:30;;;;;;;10.70;8.13;;;26.80;86.90;;;;;;5059366;28;20532;-74
2023/08/01 07:01:57;;;;;;;14.87;8.00;;;26.90;86.50;;;;;;5075047;28;20207;-75
2023/08/01 07:04:24;;;;;;;11.00;7.60;;;26.90;86.30;;;;;;5078486;28;20242;-75
2023/08/01 07:06:53;;;;;;;9.03;7.80;;;27.00;86.30;;;;;;5081417;28;20209;-75
2023/08/01 07:09:20;;;;;;;10.83;7.67;;;27.00;85.70;;;;;;5082368;28;20288;-75
2023/08/01 07:11:48;;;;;;;11.20;7.83;;;27.20;85.40;;;;;;5080984;28;20240;-75
2023/08/01 07:14:15;;;;;;;11.90;7.80;;;27.20;85.00;;;;;;5070863;28;20194;-75
2023/08/01 07:16:42;;;;;;;13.27;9.00;;;27.30;84.60;;;;;;5099322;28;20201;-75
2023/08/01 07:19:09;;;;;;;11.30;7.50;;;27.30;84.40;;;;;;5080919;28;20207;-75
2023/08/01 07:21:37;;;;;;;13.43;8.17;;;27.30;84.20;;;;;;5062302;28;20198;-75
2023/08/01 07:24:07;;;;;;;15.17;7.50;;;27.30;84.20;;;;;;5061058;28;20300;-75
2023/08/01 07:26:39;;;;;;;15.27;8.27;;;27.50;84.20;;;;;;5081515;28;20212;-75
2023/08/01 07:29:11;;;;;;;13.10;6.90;;;27.60;83.50;;;;;;5099937;28;20204;-75
2023/08/01 07:31:38;;;;;;;14.20;7.57;;;27.70;83.30;;;;;;5065568;28;20324;-76
2023/08/01 07:34:05;;;;;;;10.47;7.77;;;27.80;83.00;;;;;;5081850;28;20204;-75
2023/08/01 07:36:33;;;;;;;8.77;7.73;;;27.80;82.80;;;;;;5073761;28;20660;-75
2023/08/01 07:39:01;;;;;;;9.60;6.60;;;27.80;82.60;;;;;;5044929;28;20225;-75
2023/08/01 07:41:28;;;;;;;8.37;6.60;;;27.70;82.70;;;;;;5062651;28;20198;-74
2023/08/01 07:43:56;;;;;;;8.80;7.17;;;27.70;83.20;;;;;;5075590;28;20204;-75
2023/08/01 07:46:23;;;;;;;7.83;6.73;;;27.80;83.60;;;;;;5098978;28;20211;-76
2023/08/01 07:48:53;;;;;;;7.50;6.70;;;28.00;83.10;;;;;;5066260;28;20208;-75
2023/08/01 07:51:21;;;;;;;8.63;6.00;;;28.10;82.80;;;;;;5087977;28;20211;-75
2023/08/01 07:53:52;;;;;;;10.27;7.90;;;28.30;82.60;;;;;;5096548;28;20281;-75
2023/08/01 07:56:20;;;;;;;9.30;6.70;;;28.40;82.10;;;;;;5069682;28;20233;-75
2023/08/01 07:58:47;;;;;;;9.90;7.27;;;28.50;81.90;;;;;;5063556;28;20209;-74
2023/08/01 08:01:15;;;;;;;8.27;6.93;;;28.40;80.50;;;;;;5080158;28;20212;-75
2023/08/01 08:03:43;;;;;;;6.93;6.13;;;28.30;80.40;;;;;;5076452;28;20198;-75
2023/08/01 08:06:11;;;;;;;10.93;5.53;;;28.20;80.90;;;;;;5072235;28;20220;-75
2023/08/01 08:08:38;;;;;;;7.80;5.90;;;28.20;81.50;;;;;;5081240;28;20201;-75
2023/08/01 08:11:05;;;;;;;9.10;5.97;;;28.30;81.70;;;;;;5082127;28;20197;-75
2023/08/01 08:13:41;;;;;;;9.77;5.40;;;28.40;81.60;;;;;;5078348;28;20245;-75
2023/08/01 08:16:09;;;;;;;8.20;6.20;;;28.50;81.20;;;;;;5079111;28;20178;-76
2023/08/01 08:18:37;;;;;;;11.47;6.10;;;28.60;80.70;;;;;;5112759;28;20258;-74
2023/08/01 08:21:04;;;;;;;10.17;5.53;;;28.80;80.70;;;;;;5084955;28;20208;-75
2023/08/01 08:23:34;;;;;;;7.00;5.70;;;28.80;80.50;;;;;;5102318;28;20200;-75
2023/08/01 08:26:02;;;;;;;8.87;5.67;;;28.90;80.30;;;;;;5101866;28;20234;-75
2023/08/01 08:28:32;;;;;;;8.07;5.50;;;29.00;80.00;;;;;;5098918;28;20197;-74
2023/08/01 08:31:02;;;;;;;7.63;6.40;;;29.10;79.40;;;;;;5079856;28;20209;-75
2023/08/01 08:33:30;;;;;;;7.87;5.77;;;29.40;78.90;;;;;;5080044;28;20532;-75
2023/08/01 08:35:57;;;;;;;10.00;5.10;;;29.50;78.40;;;;;;5098485;28;20288;-75
2023/08/01 08:38:28;;;;;;;10.00;5.17;;;29.60;78.20;;;;;;5099054;28;20189;-75
2023/08/01 08:41:13;;;;;;;7.83;5.37;;;29.70;77.90;;;;;;5064743;28;20201;-75
2023/08/01 08:43:41;;;;;;;8.37;5.50;;;29.90;77.30;;;;;;5097950;28;20185;-75
2023/08/01 08:46:10;;;;;;;11.33;6.30;;;30.00;76.60;;;;;;5097738;28;20201;-75
2023/08/01 08:48:40;;;;;;;8.57;5.73;;;30.10;76.50;;;;;;5081363;28;20202;-76
2023/08/01 08:51:10;;;;;;;8.20;5.40;;;30.20;76.70;;;;;;5081953;28;20189;-75
2023/08/01 08:53:40;;;;;;;5.17;4.67;;;30.30;76.70;;;;;;5064496;28;20228;-75
2023/08/01 08:56:09;;;;;;;6.30;4.80;;;30.50;76.10;;;;;;5079277;28;20225;-75
2023/08/01 08:58:40;;;;;;;5.23;4.47;;;30.70;75.60;;;;;;5078656;28;20193;-75
2023/08/01 09:01:08;;;;;;;8.87;6.20;;;30.80;75.30;;;;;;5060843;28;20189;-77
2023/08/01 09:03:36;;;;;;;10.97;5.30;;;31.00;74.60;;;;;;5060533;28;20197;-75
2023/08/01 09:06:14;;;;;;;9.53;5.07;;;31.20;74.00;;;;;;5060799;28;20201;-75
2023/08/01 09:08:50;;;;;;;8.87;5.47;;;31.30;73.00;;;;;;5077564;28;20213;-75
2023/08/01 09:11:18;;;;;;;7.73;5.37;;;31.50;72.70;;;;;;5071789;28;20224;-75
2023/08/01 09:13:48;;;;;;;5.77;5.00;;;31.60;73.00;;;;;;5094990;28;20684;-75
2023/08/01 09:16:16;;;;;;;8.23;4.70;;;31.70;71.20;;;;;;5078387;28;20189;-75
2023/08/01 09:18:51;;;;;;;10.87;5.77;;;31.70;71.00;;;;;;5080243;28;20224;-76
2023/08/01 09:21:20;;;;;;;5.00;4.20;;;31.90;70.70;;;;;;5064962;28;20565;-75
2023/08/01 09:23:47;;;;;;;7.50;3.80;;;32.00;70.50;;;;;;5075846;28;20242;-76
2023/08/01 09:26:16;;;;;;;5.80;4.50;;;32.20;70.10;;;;;;5098900;28;20193;-75
2023/08/01 09:28:43;;;;;;;4.67;4.27;;;32.30;69.40;;;;;;5071257;28;20205;-75
2023/08/01 09:31:11;;;;;;;5.67;4.10;;;32.40;68.70;;;;;;5099029;28;20207;-75
2023/08/01 09:33:41;;;;;;;5.27;4.40;;;32.40;67.80;;;;;;5060070;28;20222;-74
2023/08/01 09:36:20;;;;;;;8.20;4.30;;;32.50;67.70;;;;;;5063272;28;20182;-76
2023/08/01 09:38:53;;;;;;;6.87;4.57;;;32.70;67.60;;;;;;5079898;28;20235;-75
2023/08/01 09:41:23;;;;;;;9.83;5.73;;;32.80;67.10;;;;;;5081100;28;20193;-75
2023/08/01 09:43:50;;;;;;;4.60;4.20;;;33.00;67.20;;;;;;5067664;28;20212;-75
2023/08/01 09:46:17;;;;;;;8.50;4.70;;;33.10;66.80;;;;;;5090654;28;20208;-75
2023/08/01 09:48:44;;;;;;;6.97;4.50;;;33.10;66.60;;;;;;5081031;28;20624;-75
2023/08/01 09:51:14;;;;;;;5.97;4.37;;;33.10;66.40;;;;;;5080579;28;20209;-76
2023/08/01 09:53:53;;;;;;;4.70;4.13;;;33.00;66.70;;;;;;5068108;28;20224;-75
2023/08/01 09:56:30;;;;;;;9.13;4.00;;;33.00;66.50;;;;;;5086253;28;20245;-74
2023/08/01 09:59:00;;;;;;;11.57;3.80;;;33.00;66.60;;;;;;5062778;28;20623;-75
2023/08/01 10:01:32;;;;;;;7.13;4.27;;;33.00;66.20;;;;;;5077055;28;20214;-74
2023/08/01 10:04:02;;;;;;;8.67;3.73;;;32.90;66.20;;;;;;5082639;28;20267;-75
2023/08/01 10:06:37;;;;;;;6.53;4.43;;;33.00;67.00;;;;;;5071795;28;20236;-75
2023/08/01 10:09:05;;;;;;;5.77;4.97;;;33.00;66.60;;;;;;5075303;28;20208;-75
2023/08/01 10:11:35;;;;;;;6.33;5.20;;;33.00;66.50;;;;;;5076036;28;20206;-75
2023/08/01 10:14:03;;;;;;;6.43;5.83;;;32.90;66.50;;;;;;5077303;28;20216;-76
2023/08/01 10:16:31;;;;;;;8.00;5.70;;;32.90;66.70;;;;;;5087026;28;20212;-76
2023/08/01 10:18:59;;;;;;;7.87;4.10;;;32.70;67.00;;;;;;5058027;28;20255;-76
2023/08/01 10:21:30;;;;;;;14.10;5.77;;;32.60;67.80;;;;;;5077622;28;20205;-75
2023/08/01 10:23:59;;;;;;;9.40;4.93;;;32.40;68.30;;;;;;5066280;28;20214;-77
2023/08/01 10:26:27;;;;;;;7.90;5.60;;;32.40;68.90;;;;;;5078474;28;20627;-77
2023/08/01 10:28:54;;;;;;;7.83;5.63;;;32.40;69.00;;;;;;5076534;28;20259;-76
2023/08/01 10:31:22;;;;;;;6.67;4.57;;;32.40;69.00;;;;;;5074893;28;20201;-77
2023/08/01 10:33:50;;;;;;;4.90;4.23;;;32.40;68.20;;;;;;5059677;28;20557;-77
2023/08/01 10:36:22;;;;;;;8.30;5.07;;;32.40;68.10;;;;;;5095707;28;20292;-76
2023/08/01 10:38:53;;;;;;;6.03;3.97;;;32.30;68.30;;;;;;5078616;28;20216;-77
2023/08/01 10:41:26;;;;;;;10.40;3.70;;;32.30;68.60;;;;;;5098824;28;20275;-76
2023/08/01 10:44:15;;;;;;;6.17;3.90;;;32.20;68.90;;;;;;5082768;28;20266;-77
2023/08/01 10:47:05;;;;;;;5.83;4.00;;;32.30;69.10;;;;;;5081196;28;20182;-76
2023/08/01 10:49:43;;;;;;;5.50;5.00;;;32.40;69.10;;;;;;5040827;28;20264;-76
2023/08/01 10:52:23;;;;;;;6.07;4.20;;;32.60;68.30;;;;;;5066496;28;20241;-76
2023/08/01 10:55:02;;;;;;;5.00;4.33;;;32.80;67.20;;;;;;5087290;28;20691;-76
2023/08/01 10:57:36;;;;;;;7.07;4.53;;;32.90;66.70;;;;;;5066900;28;20235;-77
2023/08/01 11:00:09;;;;;;;9.07;4.20;;;33.20;65.90;;;;;;5061646;28;20205;-76
2023/08/01 11:02:37;;;;;;;6.90;4.43;;;33.40;65.40;;;;;;5083088;28;20201;-76
2023/08/01 11:05:07;;;;;;;4.93;3.73;;;33.50;64.10;;;;;;5074016;28;20205;-77
2023/08/01 11:07:35;;;;;;;4.60;3.93;;;33.40;63.80;;;;;;5079108;28;20229;-77
2023/08/01 11:10:13;;;;;;;6.43;3.53;;;33.20;63.00;;;;;;5086153;28;20604;-77
2023/08/01 11:12:43;;;;;;;6.83;4.43;;;33.00;63.50;;;;;;5084567;28;20287;-76
2023/08/01 11:15:13;;;;;;;5.97;3.40;;;32.80;63.80;;;;;;5094218;28;20197;-77
2023/08/01 11:17:46;;;;;;;9.03;3.60;;;32.70;64.10;;;;;;5081143;28;20239;-77
2023/08/01 11:20:18;;;;;;;4.33;3.37;;;32.70;65.00;;;;;;5081205;28;20177;-77
2023/08/01 11:22:50;;;;;;;4.93;3.50;;;32.80;63.60;;;;;;5080752;28;20284;-76
2023/08/01 11:25:17;;;;;;;4.30;3.33;;;32.90;61.80;;;;;;5080041;28;20212;-77
2023/08/01 11:27:44;;;;;;;5.17;3.53;;;32.80;61.90;;;;;;5081402;28;20204;-77
2023/08/01 11:30:12;;;;;;;7.80;4.10;;;32.60;62.20;;;;;;5081588;28;20205;-77
2023/08/01 11:32:40;;;;;;;4.67;3.87;;;32.60;62.60;;;;;;5098597;28;20209;-77
2023/08/01 11:35:07;;;;;;;4.53;3.23;;;32.60;62.70;;;;;;5077380;28;20248;-77
2023/08/01 11:37:35;;;;;;;4.33;3.43;;;32.70;62.20;;;;;;5068066;28;20197;-76
2023/08/01 11:40:03;;;;;;;4.47;4.07;;;32.80;62.00;;;;;;5068071;28;20211;-76
2023/08/01 11:42:34;;;;;;;4.33;3.87;;;32.80;60.90;;;;;;5077441;28;20529;-76
2023/08/01 11:45:11;;;;;;;3.70;3.40;;;32.90;60.80;;;;;;5075521;28;20621;-76
2023/08/01 11:47:47;;;;;;;3.93;3.20;;;32.90;60.70;;;;;;5066103;28;20276;-76
2023/08/01 11:50:25;;;;;;;4.20;3.20;;;33.00;60.80;;;;;;5090630;28;20223;-77
2023/08/01 11:52:53;;;;;;;4.33;3.83;;;33.10;60.60;;;;;;5073322;28;20299;-78
2023/08/01 11:55:27;;;;;;;3.27;2.93;;;33.20;60.50;;;;;;5097262;28;20312;-77
2023/08/01 11:57:58;;;;;;;6.30;3.67;;;33.30;60.20;;;;;;5079896;28;20201;-77
2023/08/01 12:00:28;;;;;;;6.07;3.73;;;33.50;59.10;;;;;;5090235;28;20201;-77
2023/08/01 12:03:07;;;;;;;4.13;3.70;;;33.60;58.80;;;;;;5098476;28;20197;-76
2023/08/01 12:05:34;;;;;;;4.27;3.43;;;33.70;59.00;;;;;;5080311;28;20280;-77
2023/08/01 12:08:12;;;;;;;6.00;3.77;;;33.80;58.20;;;;;;5093177;28;20221;-77
2023/08/01 12:10:45;;;;;;;6.67;3.20;;;33.90;56.70;;;;;;5063670;28;20217;-76
2023/08/01 12:13:25;;;;;;;7.47;3.47;;;34.00;55.80;;;;;;5060942;28;20240;-76
2023/08/01 12:15:58;;;;;;;5.67;3.33;;;34.00;55.50;;;;;;5071588;28;20219;-77
2023/08/01 12:18:28;;;;;;;4.23;3.80;;;34.10;54.90;;;;;;5066175;28;20520;-77
2023/08/01 12:21:19;;;;;;;5.93;3.43;;;34.20;53.70;;;;;;5091009;28;20189;-76
2023/08/01 12:23:46;;;;;;;4.63;3.40;;;34.20;54.10;;;;;;5080824;28;20250;-76
2023/08/01 12:26:14;;;;;;;5.40;3.53;;;34.30;54.10;;;;;;5063820;28;20220;-77
2023/08/01 12:28:42;;;;;;;7.43;3.80;;;34.40;52.80;;;;;;5054852;28;20224;-75
2023/08/01 12:31:09;;;;;;;5.97;3.40;;;34.50;52.30;;;;;;5095545;28;20296;-76
2023/08/01 12:33:36;;;;;;;9.67;3.37;;;34.40;51.40;;;;;;5076016;28;20245;-76
2023/08/01 12:36:04;;;;;;;8.17;3.70;;;34.20;52.40;;;;;;5091790;28;20212;-76
2023/08/01 12:38:38;;;;;;;6.13;3.97;;;34.30;53.20;;;;;;5085156;28;20204;-77
2023/08/01 12:41:09;;;;;;;3.67;3.23;;;34.40;52.10;;;;;;5078744;28;20182;-76
2023/08/01 12:43:37;;;;;;;7.03;3.40;;;34.60;51.20;;;;;;5071727;28;20209;-77
2023/08/01 12:46:04;;;;;;;7.93;3.80;;;34.70;51.30;;;;;;5046894;28;20206;-77
2023/08/01 12:48:31;;;;;;;6.03;3.60;;;34.90;50.10;;;;;;5061157;28;20209;-76
2023/08/01 12:50:59;;;;;;;4.93;3.50;;;34.80;50.30;;;;;;5076254;28;20295;-76
2023/08/01 12:53:27;;;;;;;7.13;3.80;;;34.80;51.20;;;;;;5098415;28;20209;-76
2023/08/01 12:56:02;;;;;;;10.90;3.30;;;34.70;51.70;;;;;;5079963;28;20228;-77
2023/08/01 12:58:30;;;;;;;4.33;3.40;;;34.80;51.40;;;;;;5098362;28;20220;-77
2023/08/01 13:00:57;;;;;;;4.67;3.33;;;34.80;51.80;;;;;;5066270;28;20247;-76
2023/08/01 13:03:24;;;;;;;5.20;4.00;;;34.70;51.90;;;;;;5071460;28;20213;-77
2023/08/01 13:05:58;;;;;;;6.30;3.53;;;34.60;51.10;;;;;;5078059;28;20202;-77
2023/08/01 13:08:29;;;;;;;6.23;4.37;;;34.60;50.90;;;;;;5065500;28;20599;-76
2023/08/01 13:11:00;;;;;;;5.83;3.57;;;34.60;50.70;;;;;;5044361;28;20644;-76
2023/08/01 13:13:31;;;;;;;4.33;3.90;;;34.70;50.80;;;;;;5043320;28;20221;-76
2023/08/01 13:16:00;;;;;;;7.23;3.87;;;34.70;50.40;;;;;;5077744;28;20207;-76
2023/08/01 13:18:27;;;;;;;5.75;4.10;;;34.70;49.60;;;;;;5059690;28;20216;-77
2023/08/01 13:20:57;;;;;;;5.60;4.33;;;34.70;49.10;;;;;;5056852;28;20274;-77